Time;durP1;ratioP1;P1;durP2;ratioP2;P2;SDS_P1;SDS_P2;PMS_P1;PMS_P2;Temp;Humidity;BMP_temperature;BMP_pressure;BME280_temperature;BME280_humidity;BME280_pressure;Samples;Min_cycle;Max_cycle;Signal;HPM_P1;HPM_P2
2022/06/18 00:00:08;;;;;;;6.03;4.43;;;;;;;22.58;42.43;99114.75;5054069;28;20041;-96
2022/06/18 00:02:34;;;;;;;7.38;4.68;;;;;;;22.68;42.31;99122.09;5044458;28;20047;-93
2022/06/18 00:04:59;;;;;;;8.85;5.10;;;;;;;22.58;41.70;99110.19;5054618;28;20116;-95
2022/06/18 00:07:25;;;;;;;5.40;4.38;;;;;;;22.70;42.05;99141.81;5053837;28;20045;-93
2022/06/18 00:09:57;;;;;;;6.93;4.70;;;;;;;22.65;41.42;99133.16;5055039;28;20067;-93
2022/06/18 00:15:30;;;;;;;6.28;4.45;;;;;;;22.60;42.62;99148.91;5115202;27;20369;-94
2022/06/18 00:17:56;;;;;;;5.57;4.40;;;;;;;22.51;42.03;99126.03;5115230;28;20048;-93
2022/06/18 00:20:24;;;;;;;6.60;4.30;;;;;;;22.40;42.78;99127.75;5115534;28;20557;-94
2022/06/18 00:22:53;;;;;;;6.18;4.53;;;;;;;22.35;43.45;99141.59;5114429;28;20467;-94
2022/06/18 00:25:21;;;;;;;5.53;4.28;;;;;;;22.17;43.83;99123.91;5115373;28;20044;-94
2022/06/18 00:27:48;;;;;;;5.82;4.28;;;;;;;22.20;43.49;99139.94;5115382;28;20040;-93
2022/06/18 00:30:20;;;;;;;9.95;4.88;;;;;;;22.17;42.79;99119.34;5116275;28;20523;-94
2022/06/18 00:32:48;;;;;;;5.15;4.30;;;;;;;22.21;43.29;99136.28;5115265;28;20517;-92
2022/06/18 00:35:15;;;;;;;5.50;4.10;;;;;;;21.96;43.49;99110.84;5116167;28;20040;-93
2022/06/18 00:37:42;;;;;;;6.55;4.47;;;;;;;21.92;43.14;99106.63;5116168;28;20042;-94
2022/06/18 00:40:19;;;;;;;5.95;4.40;;;;;;;22.16;42.54;99120.31;5115393;28;20039;-94
2022/06/18 00:43:44;;;;;;;9.30;4.72;;;;;;;22.06;42.97;99113.81;5116130;27;20039;-94
2022/06/18 00:46:15;;;;;;;8.13;4.47;;;;;;;22.32;42.59;99137.28;5112032;28;20051;-94
2022/06/18 00:48:49;;;;;;;5.93;4.32;;;;;;;22.17;42.71;99111.22;5116447;28;20048;-94
2022/06/18 00:51:20;;;;;;;4.90;4.40;;;;;;;22.19;43.25;99124.66;5115427;28;20499;-92
2022/06/18 00:53:49;;;;;;;6.40;4.55;;;;;;;22.17;43.65;99135.59;5115197;28;20066;-94
2022/06/18 00:56:20;;;;;;;7.47;4.80;;;;;;;21.98;43.57;99100.78;5112330;28;20131;-95
2022/06/18 00:58:50;;;;;;;6.50;4.60;;;;;;;22.03;43.05;99100.47;5115744;28;20036;-93
2022/06/18 01:01:21;;;;;;;6.72;5.07;;;;;;;22.03;43.55;99092.34;5115267;28;20123;-93
2022/06/18 01:03:50;;;;;;;5.72;4.43;;;;;;;22.07;43.10;99097.44;5114247;28;20071;-93
2022/06/18 01:06:18;;;;;;;6.25;4.72;;;;;;;22.10;43.63;99112.63;5114366;28;20048;-91
2022/06/18 01:08:46;;;;;;;5.68;4.30;;;;;;;22.05;44.29;99120.19;5113061;28;20546;-94
2022/06/18 01:11:19;;;;;;;7.57;4.60;;;;;;;21.84;44.22;99095.44;5116306;28;20040;-94
2022/06/18 01:13:45;;;;;;;7.63;4.65;;;;;;;21.98;44.74;99130.56;5106436;28;20070;-92
2022/06/18 01:16:11;;;;;;;7.22;4.65;;;;;;;21.78;44.46;99091.31;5114752;28;20047;-95
2022/06/18 01:18:38;;;;;;;6.00;4.28;;;;;;;21.77;45.39;99100.41;5114544;28;20075;-94
2022/06/18 01:21:14;;;;;;;5.72;4.60;;;;;;;21.75;45.32;99102.34;5113756;28;20400;-93
2022/06/18 01:23:47;;;;;;;5.80;4.90;;;;;;;21.68;45.63;99098.31;5113306;28;20043;-92
2022/06/18 01:26:14;;;;;;;6.95;4.75;;;;;;;21.58;45.54;99084.56;5095182;28;20036;-92
2022/06/18 01:28:40;;;;;;;6.70;4.80;;;;;;;21.75;45.40;99102.34;5101882;28;20036;-93
2022/06/18 01:31:07;;;;;;;6.13;4.93;;;;;;;21.66;45.08;99092.16;5100667;28;20040;-94
2022/06/18 01:33:34;;;;;;;6.22;4.95;;;;;;;21.71;44.64;99092.72;5099885;28;20100;-93
2022/06/18 01:36:04;;;;;;;5.68;4.80;;;;;;;21.69;44.93;99100.94;5101402;28;20127;-93
2022/06/18 01:38:30;;;;;;;5.68;4.53;;;;;;;21.71;44.93;99104.41;5098151;28;20068;-93
2022/06/18 01:41:49;;;;;;;6.63;4.72;;;;;;;21.76;45.53;99108.66;5101278;28;20047;-93
2022/06/18 01:43:48;;;;;;;6.10;4.68;;;;;;;21.77;45.53;99115.78;5099624;28;20042;-95
2022/06/18 01:46:14;;;;;;;6.43;4.70;;;;;;;21.69;45.21;99100.09;5099228;28;20075;-95
2022/06/18 01:48:44;;;;;;;6.45;4.68;;;;;;;21.61;45.16;99095.16;5099519;28;20387;-94
2022/06/18 01:51:14;;;;;;;6.90;4.80;;;;;;;21.56;45.23;99091.03;5098835;28;20043;-91
2022/06/18 01:53:47;;;;;;;6.13;4.50;;;;;;;21.66;45.08;99105.69;5099111;28;20032;-94
2022/06/18 01:56:17;;;;;;;7.03;4.93;;;;;;;21.69;45.57;99119.03;5098758;28;20051;-95
2022/06/18 01:58:48;;;;;;;8.68;5.10;;;;;;;21.47;45.76;99078.97;5098804;28;20044;-93
2022/06/18 02:01:24;;;;;;;7.15;4.80;;;;;;;21.62;45.89;99112.28;5099470;28;20055;-92
2022/06/18 02:03:51;;;;;;;6.97;4.82;;;;;;;21.53;45.78;99093.00;5099827;28;20040;-94
2022/06/18 02:06:17;;;;;;;6.00;4.55;;;;;;;21.51;45.80;99104.88;5099505;28;20051;-91
2022/06/18 02:08:44;;;;;;;7.82;5.18;;;;;;;21.39;45.79;99087.59;5099308;28;20447;-93
2022/06/18 02:11:12;;;;;;;5.43;4.80;;;;;;;21.41;46.29;99091.09;5100025;28;20040;-92
2022/06/18 02:13:43;;;;;;;;;;;;;;;21.48;46.66;99114.06;5099953;28;20513;-93
2022/06/18 02:16:16;;;;;;;5.47;4.82;;;;;;;21.42;46.43;99106.34;5098877;28;19927;-94
2022/06/18 02:18:43;;;;;;;6.95;5.03;;;;;;;21.38;46.39;99101.22;5098897;28;20058;-93
2022/06/18 02:21:12;;;;;;;7.30;4.68;;;;;;;21.21;46.57;99078.88;5099007;28;20442;-94
2022/06/18 02:23:38;;;;;;;;;;;;;;;21.41;46.67;99111.84;5099549;28;20036;-94
2022/06/18 02:26:07;;;;;;;6.43;4.50;;;;;;;21.33;46.42;99106.94;5099059;28;19916;-93
2022/06/18 02:28:36;;;;;;;7.00;4.68;;;;;;;21.25;46.55;99095.75;5099075;28;20032;-92
2022/06/18 02:31:03;;;;;;;6.13;4.80;;;;;;;21.20;46.20;99082.53;5099671;28;20071;-92
2022/06/18 02:33:37;;;;;;;6.28;4.70;;;;;;;21.14;46.56;99091.03;5099065;28;20071;-92
2022/06/18 02:36:12;;;;;;;7.00;4.53;;;;;;;21.37;46.37;99113.88;5099749;28;20062;-92
2022/06/18 02:38:37;;;;;;;5.78;4.70;;;;;;;21.36;46.01;99098.63;5099184;28;20051;-90
2022/06/18 02:41:03;;;;;;;5.93;4.65;;;;;;;21.24;46.22;99084.06;5097917;28;20029;-93
2022/06/18 02:43:30;;;;;;;7.32;4.55;;;;;;;21.20;46.20;99082.53;5099823;28;20036;-93
2022/06/18 02:45:56;;;;;;;6.32;4.97;;;;;;;21.20;46.44;99090.63;5100142;28;20093;-94
2022/06/18 02:48:26;;;;;;;7.30;5.05;;;;;;;21.20;46.50;99095.19;5099100;28;20091;-95
2022/06/18 02:50:55;;;;;;;6.47;4.88;;;;;;;21.23;46.74;99100.38;5089157;28;20050;-93
2022/06/18 02:53:21;;;;;;;7.63;5.07;;;;;;;21.27;46.59;99112.75;5098674;28;20121;-93
2022/06/18 02:55:51;;;;;;;5.10;4.53;;;;;;;21.16;46.75;99094.50;5097016;28;20040;-92
2022/06/18 02:58:20;;;;;;;5.75;4.85;;;;;;;21.10;46.71;99089.50;5097697;28;20043;-92
2022/06/18 03:00:53;;;;;;;7.32;5.30;;;;;;;21.20;46.80;99112.28;5097769;28;20493;-93
2022/06/18 03:03:21;;;;;;;5.40;4.60;;;;;;;21.01;47.02;99090.09;5098100;28;20448;-92
2022/06/18 03:05:48;;;;;;;7.70;5.10;;;;;;;21.15;47.00;99118.97;5098613;28;20039;-92
2022/06/18 03:08:15;;;;;;;7.18;4.72;;;;;;;21.09;47.10;99112.13;5096723;28;20761;-93
2022/06/18 03:13:40;;;;;;;5.43;4.80;;;;;;;20.97;46.93;99102.97;5134993;27;20380;-94
2022/06/18 03:16:08;;;;;;;6.32;5.00;;;;;;;21.03;47.52;99116.06;5135162;28;20089;-95
2022/06/18 03:18:37;;;;;;;6.18;4.88;;;;;;;20.92;47.10;99092.44;5135323;28;20090;-95
2022/06/18 03:21:09;;;;;;;6.70;5.03;;;;;;;20.95;47.72;99104.91;5133569;28;20044;-93
2022/06/18 03:23:36;;;;;;;6.18;4.85;;;;;;;20.90;47.46;99102.47;5135666;28;20427;-94
2022/06/18 03:26:02;;;;;;;8.13;4.85;;;;;;;20.81;47.54;99094.97;5135763;28;20127;-93
2022/06/18 03:28:29;;;;;;;6.43;4.90;;;;;;;20.96;47.73;99117.44;5136667;28;20043;-96
2022/06/18 03:30:56;;;;;;;7.63;5.20;;;;;;;20.79;47.63;99093.31;5135043;28;20040;-95
2022/06/18 03:33:22;;;;;;;6.57;5.20;;;;;;;20.88;47.88;99103.53;5135224;27;20035;-93
2022/06/18 03:35:50;;;;;;;6.88;4.80;;;;;;;20.87;47.25;99104.53;5135254;28;20463;-93
2022/06/18 03:38:19;;;;;;;7.13;4.68;;;;;;;21.02;46.66;99127.00;5134903;27;20039;-95
2022/06/18 03:40:52;;;;;;;7.20;4.63;;;;;;;21.08;46.90;99137.44;5134722;28;20504;-93
2022/06/18 03:43:19;;;;;;;6.30;4.80;;;;;;;20.91;46.84;99103.38;5135883;28;20035;-94
2022/06/18 03:45:47;;;;;;;6.70;4.82;;;;;;;20.98;46.51;99111.94;5135569;28;20043;-93
2022/06/18 03:48:21;;;;;;;5.45;4.50;;;;;;;21.03;46.53;99120.63;5135102;28;20047;-93
2022/06/18 03:50:48;;;;;;;6.05;4.78;;;;;;;21.10;46.04;99130.94;5126603;28;20048;-94
2022/06/18 03:53:14;;;;;;;7.95;5.18;;;;;;;21.04;46.02;99117.81;5134605;27;20070;-93
2022/06/18 03:55:39;;;;;;;7.20;4.70;;;;;;;21.04;45.86;99123.22;5134562;27;20040;-93
2022/06/18 03:58:05;;;;;;;5.68;4.50;;;;;;;21.11;45.81;99135.38;5134105;27;20070;-92
2022/06/18 04:00:32;;;;;;;7.25;5.03;;;;;;;21.12;46.25;99118.19;5135174;27;20043;-93
2022/06/18 04:02:58;;;;;;;6.43;4.85;;;;;;;21.08;48.89;99135.59;5134336;27;20037;-92
2022/06/18 04:05:25;;;;;;;6.07;4.63;;;;;;;21.22;45.82;99147.34;5134669;28;20460;-93
2022/06/18 04:07:51;;;;;;;5.60;5.00;;;;;;;21.04;46.17;99116.97;5134558;28;20092;-93
2022/06/18 04:10:19;;;;;;;6.57;4.60;;;;;;;21.07;46.19;99131.13;5133841;27;20039;-93
2022/06/18 04:12:46;;;;;;;6.43;4.80;;;;;;;21.07;45.98;99116.75;5134764;27;20053;-94
2022/06/18 04:15:13;;;;;;;6.50;4.95;;;;;;;21.29;45.79;99159.50;5134943;28;20036;-93
2022/06/18 04:17:40;;;;;;;6.55;4.68;;;;;;;21.34;46.25;99162.78;5134452;28;20062;-95
2022/06/18 04:20:07;;;;;;;6.50;4.78;;;;;;;21.13;45.46;99128.03;5135644;28;20039;-94
2022/06/18 04:22:34;;;;;;;5.60;4.78;;;;;;;21.19;45.80;99143.00;5134398;28;20046;-94
2022/06/18 04:25:00;;;;;;;8.63;5.07;;;;;;;21.26;46.42;99159.72;5119541;28;20043;-92
2022/06/18 04:27:26;;;;;;;6.68;4.60;;;;;;;21.27;46.28;99166.84;5121067;28;20048;-95
2022/06/18 04:29:52;;;;;;;7.20;4.80;;;;;;;21.32;46.38;99171.00;5120629;28;20035;-94
2022/06/18 04:32:18;;;;;;;5.78;4.63;;;;;;;21.29;46.33;99162.19;5120370;28;20043;-94
2022/06/18 04:34:43;;;;;;;11.15;4.82;;;;;;;21.28;46.91;99169.44;5122096;28;20044;-94
2022/06/18 04:37:09;;;;;;;7.45;5.25;;;;;;;21.11;46.67;99135.38;5121016;28;20103;-94
2022/06/18 04:39:37;;;;;;;6.00;4.90;;;;;;;21.17;46.21;99139.53;5121204;28;20047;-95
2022/06/18 04:42:06;;;;;;;7.15;4.75;;;;;;;21.26;46.48;99165.97;5122057;28;20042;-94
2022/06/18 04:44:31;;;;;;;5.60;4.97;;;;;;;21.11;46.63;99137.22;5121660;28;20109;-95
2022/06/18 04:46:57;;;;;;;5.82;4.93;;;;;;;21.29;46.24;99164.91;5121227;28;20043;-93
2022/06/18 04:49:23;;;;;;;7.35;4.60;;;;;;;21.43;46.06;99158.66;5121196;28;20052;-95
2022/06/18 04:51:49;;;;;;;6.57;4.72;;;;;;;21.89;46.48;99171.81;5120997;28;20067;-93
2022/06/18 04:54:15;;;;;;;6.40;4.63;;;;;;;22.25;44.03;99168.50;5121528;28;20073;-94
2022/06/18 04:56:42;;;;;;;5.95;4.50;;;;;;;22.64;43.68;99172.09;5120488;28;20032;-96
2022/06/18 04:59:08;;;;;;;6.18;4.50;;;;;;;22.79;42.94;99156.56;5119943;28;20040;-94
2022/06/18 05:01:34;;;;;;;6.45;5.00;;;;;;;22.63;43.41;99159.50;5119766;28;20580;-96
2022/06/18 05:04:00;;;;;;;6.40;4.65;;;;;;;22.77;43.22;99163.97;5120558;28;20035;-91
2022/06/18 05:06:26;;;;;;;5.55;4.82;;;;;;;23.00;42.81;99167.75;5120257;28;20069;-92
2022/06/18 05:08:52;;;;;;;6.30;4.55;;;;;;;23.05;42.85;99165.63;5119524;28;20040;-95
2022/06/18 05:11:18;;;;;;;6.63;4.28;;;;;;;22.93;42.87;99163.75;5119840;28;20044;-94
2022/06/18 05:13:45;;;;;;;6.97;4.80;;;;;;;22.87;43.36;99173.16;5119952;28;20044;-93
2022/06/18 05:16:11;;;;;;;7.25;4.75;;;;;;;23.00;42.68;99165.06;5119967;28;20497;-94
2022/06/18 05:18:43;;;;;;;6.28;4.60;;;;;;;23.13;42.46;99171.31;5119108;28;20039;-93
2022/06/18 05:21:09;;;;;;;6.22;4.53;;;;;;;22.98;44.15;99196.81;5109309;28;20047;-95
2022/06/18 05:23:35;;;;;;;6.80;4.60;;;;;;;23.24;42.60;99170.53;5119683;28;20046;-94
2022/06/18 05:26:02;;;;;;;5.93;4.70;;;;;;;23.10;42.91;99160.72;5122839;28;20055;-92
2022/06/18 05:28:28;;;;;;;6.28;4.75;;;;;;;23.15;42.49;99163.94;5120555;27;20492;-94
2022/06/18 05:30:56;;;;;;;5.47;4.47;;;;;;;23.37;43.31;99193.09;5119900;28;20044;-93
2022/06/18 05:33:21;;;;;;;6.18;4.45;;;;;;;23.43;42.92;99185.50;5120091;28;20036;-93
2022/06/18 05:35:47;;;;;;;6.28;4.50;;;;;;;23.54;42.58;99164.72;5118149;28;20061;-94
2022/06/18 05:38:17;;;;;;;6.25;4.75;;;;;;;23.85;43.10;99172.44;5118893;28;20071;-94
2022/06/18 05:40:43;;;;;;;10.05;5.32;;;;;;;24.12;42.77;99172.19;5121976;28;20039;-93
2022/06/18 05:43:12;;;;;;;5.78;4.40;;;;;;;24.48;41.95;99197.50;5118299;28;20036;-93
2022/06/18 05:45:38;;;;;;;5.97;4.50;;;;;;;24.35;42.02;99200.31;5117521;28;20081;-93
2022/06/18 05:48:10;;;;;;;8.15;4.88;;;;;;;23.81;42.44;99179.06;5115278;28;20130;-94
2022/06/18 05:50:36;;;;;;;6.15;4.60;;;;;;;24.20;42.76;99186.03;5119710;28;20089;-94
2022/06/18 05:53:02;;;;;;;6.03;4.47;;;;;;;24.44;42.12;99190.56;5117697;28;20036;-94
2022/06/18 05:55:28;;;;;;;8.65;4.90;;;;;;;24.00;42.87;99174.00;5118458;28;20040;-93
2022/06/18 05:57:56;;;;;;;7.00;5.57;;;;;;;23.40;43.84;99173.03;5118555;28;20122;-95
2022/06/18 06:00:26;;;;;;;9.68;5.15;;;;;;;23.69;43.32;99187.13;5117978;28;20046;-94
2022/06/18 06:02:51;;;;;;;6.35;5.53;;;;;;;24.25;43.38;99204.75;5115851;28;20035;-93
2022/06/18 06:05:19;;;;;;;7.30;5.70;;;;;;;24.10;41.75;99174.16;5118497;28;20508;-92
2022/06/18 06:07:49;;;;;;;8.15;6.07;;;;;;;24.15;42.21;99205.41;5118657;28;20044;-94
2022/06/18 06:23:55;;;;;;;5.40;4.90;;;;;;;25.19;40.89;99215.47;6203718;22;20418;-93
2022/06/18 06:26:24;;;;;;;6.13;4.72;;;;;;;25.50;41.42;99199.38;6191729;23;20017;-92
2022/06/18 06:28:50;;;;;;;6.43;4.80;;;;;;;24.99;41.21;99205.31;6192022;23;20017;-93
2022/06/18 06:31:17;;;;;;;8.40;5.28;;;;;;;24.41;42.16;99186.25;6192277;23;20055;-93
2022/06/18 06:33:46;;;;;;;7.88;5.30;;;;;;;24.21;43.66;99204.09;6192167;23;20039;-95
2022/06/18 06:36:13;;;;;;;7.78;5.22;;;;;;;23.95;44.40;99211.50;6192367;23;20020;-94
2022/06/18 06:38:39;;;;;;;6.13;5.10;;;;;;;23.63;45.04;99217.44;6192923;23;20024;-94
2022/06/18 06:41:13;;;;;;;6.78;5.25;;;;;;;23.44;46.31;99222.50;6194447;23;20028;-91
2022/06/18 06:43:38;;;;;;;8.43;5.50;;;;;;;23.26;47.11;99203.88;6193723;22;20021;-93
2022/06/18 06:46:04;;;;;;;6.25;5.38;;;;;;;23.38;46.44;99202.97;6193728;23;20104;-94
2022/06/18 06:48:33;;;;;;;9.63;5.50;;;;;;;23.76;46.63;99206.59;6192570;23;20446;-94
2022/06/18 06:50:59;;;;;;;;;;;;;;;24.05;44.66;99231.56;6192979;23;20351;-92
2022/06/18 06:53:25;;;;;;;6.30;5.22;;;;;;;24.34;44.71;99221.19;6192235;23;19917;-95
2022/06/18 06:58:46;;;;;;;7.00;5.20;;;;;;;24.55;44.32;99217.84;5094074;27;20378;-93
2022/06/18 07:01:45;;;;;;;7.97;4.85;;;;;;;24.54;43.17;99195.22;5092942;28;20481;-95
2022/06/18 07:04:17;;;;;;;5.65;4.95;;;;;;;24.90;41.57;99193.31;5093708;28;20111;-94
2022/06/18 07:06:46;;;;;;;7.82;5.18;;;;;;;24.99;42.13;99222.50;5096612;28;20040;-92
2022/06/18 07:09:47;;;;;;;6.07;4.80;;;;;;;24.96;42.36;99202.81;5097317;28;20366;-96
2022/06/18 07:12:22;;;;;;;7.93;5.38;;;;;;;24.93;42.89;99203.06;5043829;28;20071;-93
2022/06/18 07:15:12;;;;;;;5.43;4.90;;;;;;;25.67;42.79;99218.91;5051019;28;20044;-93
2022/06/18 07:17:45;;;;;;;5.78;4.60;;;;;;;25.75;43.38;99203.66;5052046;28;20144;-94
2022/06/18 07:20:20;;;;;;;7.65;5.03;;;;;;;25.59;42.85;99189.56;5054107;28;20048;-94
2022/06/18 07:22:54;;;;;;;7.25;5.03;;;;;;;25.84;40.70;99182.97;5049785;28;20438;-95
2022/06/18 07:25:34;;;;;;;;;;;;;;;26.16;39.90;99209.41;5051214;28;20469;-95
2022/06/18 07:28:14;;;;;;;5.68;4.82;;;;;;;25.89;39.56;99174.44;5051650;28;19959;-94
2022/06/18 07:30:46;;;;;;;6.70;4.80;;;;;;;26.05;38.93;99176.75;5050353;28;20111;-93
2022/06/18 07:33:18;;;;;;;5.63;4.65;;;;;;;26.56;38.35;99195.97;5050850;28;20049;-92
2022/06/18 07:35:53;;;;;;;7.57;4.70;;;;;;;26.52;39.13;99179.97;5050820;28;20045;-94
2022/06/18 07:38:19;;;;;;;6.22;4.60;;;;;;;26.73;37.29;99197.22;5050686;28;20041;-93
2022/06/18 07:40:57;;;;;;;;;;;;;;;27.15;35.16;99210.84;5049944;28;20041;-92
2022/06/18 07:43:30;;;;;;;5.90;4.38;;;;;;;27.22;35.02;99205.72;5049461;28;19923;-94
2022/06/18 07:46:01;;;;;;;6.97;4.47;;;;;;;27.41;35.38;99180.34;5052233;28;20089;-95
2022/06/18 07:48:30;;;;;;;8.13;4.32;;;;;;;27.70;34.62;99198.72;5065434;28;20036;-94
2022/06/18 07:51:04;;;;;;;5.60;4.72;;;;;;;27.71;36.06;99184.03;5096241;28;20517;-94
2022/06/18 07:54:00;;;;;;;7.70;4.57;;;;;;;27.48;33.95;99156.06;5095333;28;20095;-95
2022/06/18 07:56:31;;;;;;;6.80;4.93;;;;;;;27.60;35.32;99166.72;5088186;28;20041;-95
2022/06/18 07:59:06;;;;;;;8.20;5.20;;;;;;;27.60;35.06;99154.94;5094250;28;20068;-93
2022/06/18 08:02:00;;;;;;;7.05;4.35;;;;;;;27.52;33.08;99142.00;5094496;28;20044;-95
2022/06/18 08:04:44;;;;;;;5.72;4.65;;;;;;;27.85;33.21;99149.00;5092417;28;20138;-91
2022/06/18 08:07:21;;;;;;;5.63;4.60;;;;;;;27.94;32.18;99149.16;5090201;28;20060;-94
2022/06/18 08:12:50;;;;;;;5.55;4.30;;;;;;;27.88;33.18;99125.97;5075633;28;20037;-91
2022/06/18 08:15:22;;;;;;;5.50;4.45;;;;;;;28.03;31.06;99154.59;5079282;28;20045;-94
2022/06/18 08:17:49;;;;;;;4.97;4.18;;;;;;;27.73;32.51;99128.22;5079483;28;20064;-94
2022/06/18 08:20:15;;;;;;;5.80;4.30;;;;;;;27.77;33.19;99151.53;5067543;28;20072;-91
2022/06/18 08:22:44;;;;;;;;;;;;;;;27.94;33.68;99160.06;5077136;28;20037;-91
2022/06/18 08:25:15;;;;;;;4.90;4.32;;;;;;;27.88;31.91;99123.22;5077035;28;20297;-91
2022/06/18 08:27:59;;;;;;;5.15;4.40;;;;;;;28.16;31.50;99134.31;5078243;28;20043;-92
2022/06/18 08:30:34;;;;;;;7.80;4.47;;;;;;;28.02;31.04;99133.75;5076553;28;20045;-92
2022/06/18 08:33:21;;;;;;;5.35;4.45;;;;;;;28.32;30.89;99129.09;5078888;28;20075;-91
2022/06/18 08:35:54;;;;;;;5.00;4.50;;;;;;;28.21;30.58;99132.84;5081254;28;20123;-92
2022/06/18 08:38:29;;;;;;;6.50;4.72;;;;;;;27.55;31.44;99129.94;5080083;28;20033;-93
2022/06/18 08:41:08;;;;;;;6.70;4.43;;;;;;;28.15;30.74;99151.72;5073202;28;20033;-93
2022/06/18 08:44:20;;;;;;;7.88;5.20;;;;;;;27.97;31.88;99130.56;5077238;28;20044;-91
2022/06/18 08:47:05;;;;;;;6.20;4.55;;;;;;;28.25;30.03;99117.03;5088714;28;20115;-93
2022/06/18 08:50:02;;;;;;;4.85;4.30;;;;;;;28.16;31.05;99120.66;5075290;28;20071;-92
2022/06/18 08:52:52;;;;;;;5.50;4.50;;;;;;;28.17;31.03;99114.16;5072792;28;20056;-93
2022/06/18 08:55:47;;;;;;;5.03;4.25;;;;;;;28.17;30.27;99127.81;5073090;28;20493;-94
2022/06/18 08:58:41;;;;;;;6.47;4.43;;;;;;;28.15;29.76;99118.91;5079499;28;20071;-93
2022/06/18 09:01:18;;;;;;;5.47;4.30;;;;;;;28.46;30.61;99144.22;5077331;28;20043;-95
2022/06/18 09:04:00;;;;;;;5.32;4.35;;;;;;;28.69;29.56;99125.59;5075795;28;20040;-92
2022/06/18 09:06:51;;;;;;;5.10;4.20;;;;;;;29.02;29.52;99131.56;5077342;28;20196;-94
2022/06/18 09:09:29;;;;;;;6.30;4.47;;;;;;;29.16;29.52;99111.06;5075198;28;20101;-91
2022/06/18 09:12:04;;;;;;;5.53;4.50;;;;;;;29.16;29.29;99111.06;5079285;28;20254;-94
2022/06/18 09:14:39;;;;;;;5.80;4.10;;;;;;;29.31;29.28;99125.13;5077032;28;20041;-94
2022/06/18 09:17:14;;;;;;;6.00;4.38;;;;;;;29.08;29.53;99112.66;5073332;28;20444;-93
2022/06/18 09:19:44;;;;;;;5.03;4.50;;;;;;;29.11;31.04;99135.31;5076379;28;20540;-92
2022/06/18 09:22:17;;;;;;;6.32;4.20;;;;;;;29.31;30.33;99103.19;5076139;28;20525;-91
2022/06/18 09:24:53;;;;;;;6.22;4.88;;;;;;;29.14;28.89;99105.72;5080110;28;20041;-95
2022/06/18 09:27:23;;;;;;;6.88;4.65;;;;;;;29.35;29.36;99100.00;5073687;28;20067;-93
2022/06/18 09:29:57;;;;;;;6.00;4.82;;;;;;;29.23;28.55;99090.25;5077104;28;20048;-92
2022/06/18 09:32:30;;;;;;;5.25;4.18;;;;;;;29.54;29.44;99131.91;5078611;28;20068;-92
2022/06/18 09:35:05;;;;;;;5.97;4.43;;;;;;;29.66;30.65;99116.09;5079010;28;20107;-89
2022/06/18 09:37:40;;;;;;;5.88;4.38;;;;;;;29.69;30.15;99100.22;5078986;28;20082;-92
2022/06/18 09:40:13;;;;;;;5.43;4.32;;;;;;;29.92;29.78;99107.13;5080208;28;20064;-93
2022/06/18 09:42:45;;;;;;;5.30;4.43;;;;;;;30.10;30.91;99107.97;5077690;28;20072;-94
2022/06/18 09:45:21;;;;;;;6.40;4.25;;;;;;;30.18;29.73;99123.63;5077148;28;20524;-93
2022/06/18 09:47:48;;;;;;;5.93;4.75;;;;;;;30.20;29.98;99129.84;5074544;28;20440;-94
2022/06/18 09:50:21;;;;;;;5.25;4.60;;;;;;;30.27;29.44;99107.06;5076355;28;20041;-93
2022/06/18 09:52:59;;;;;;;5.10;4.60;;;;;;;29.54;30.94;99088.06;5079062;28;20079;-94
2022/06/18 09:55:37;;;;;;;6.38;4.60;;;;;;;29.92;29.75;99085.19;5074854;28;20040;-92
2022/06/18 09:58:13;;;;;;;6.15;4.50;;;;;;;29.88;29.80;99082.78;5078766;28;20048;-96
2022/06/18 10:00:41;;;;;;;5.35;4.68;;;;;;;30.19;29.97;99087.84;5077502;28;20059;-94
2022/06/18 10:03:13;;;;;;;6.75;4.70;;;;;;;29.98;30.34;99082.69;5081428;28;20096;-91
2022/06/18 10:08:46;;;;;;;6.53;4.45;;;;;;;29.75;28.96;99085.03;5160557;27;20382;-94
2022/06/18 10:11:15;;;;;;;6.93;4.55;;;;;;;29.26;30.08;99074.38;5156640;27;20044;-94
2022/06/18 10:13:49;;;;;;;;;;;;;;;28.87;31.36;99112.03;5159442;27;20049;-92
2022/06/18 10:16:27;;;;;;;5.03;4.50;;;;;;;29.15;30.17;99081.94;5158124;27;19919;-93
2022/06/18 10:19:09;;;;;;;5.13;4.50;;;;;;;29.30;30.38;99083.16;5152839;27;20039;-94
2022/06/18 10:21:44;;;;;;;7.20;4.95;;;;;;;28.93;30.38;99089.53;5161420;27;20381;-94
2022/06/18 10:24:23;;;;;;;5.75;4.63;;;;;;;28.54;31.48;99092.41;5158134;27;20488;-94
2022/06/18 10:27:07;;;;;;;7.05;4.93;;;;;;;28.71;31.83;99077.06;5157601;27;20035;-95
2022/06/18 10:29:39;;;;;;;6.22;5.10;;;;;;;29.29;30.98;99086.91;5159472;27;20045;-95
2022/06/18 10:32:21;;;;;;;5.38;4.70;;;;;;;29.17;30.53;99079.91;5158285;27;20043;-93
2022/06/18 10:35:05;;;;;;;6.72;4.70;;;;;;;29.17;31.75;99089.00;5155258;27;20093;-92
2022/06/18 10:37:45;;;;;;;5.47;4.85;;;;;;;29.57;30.42;99093.22;5155422;27;20039;-94
2022/06/18 10:40:23;;;;;;;7.32;5.10;;;;;;;29.85;30.83;99106.91;5148417;27;20547;-93
2022/06/18 10:43:02;;;;;;;7.22;4.70;;;;;;;30.04;30.58;99108.63;5158574;27;20043;-93
2022/06/18 10:45:39;;;;;;;6.35;4.65;;;;;;;29.80;30.22;99087.31;5156965;27;20092;-92
2022/06/18 10:48:11;;;;;;;6.28;4.80;;;;;;;29.16;30.41;99083.66;5157414;27;20038;-93
2022/06/18 10:50:46;;;;;;;7.07;4.95;;;;;;;29.14;30.91;99099.38;5158762;27;20035;-93
2022/06/18 10:53:15;;;;;;;6.15;4.95;;;;;;;28.98;30.88;99075.38;5158389;27;20043;-92
2022/06/18 10:55:55;;;;;;;5.68;5.03;;;;;;;29.00;31.33;99073.34;5155252;27;20039;-94
2022/06/18 10:58:24;;;;;;;7.65;5.13;;;;;;;29.34;30.96;99078.22;5155517;27;20035;-94
2022/06/18 11:00:56;;;;;;;5.75;5.15;;;;;;;29.65;31.04;99096.03;5155373;27;20038;-93
2022/06/18 11:03:30;;;;;;;6.88;5.43;;;;;;;29.55;29.85;99066.97;5156257;27;20035;-90
2022/06/18 11:06:04;;;;;;;7.50;5.60;;;;;;;29.63;30.77;99075.31;5142630;27;20117;-92
2022/06/18 11:08:34;;;;;;;5.25;4.72;;;;;;;29.80;30.84;99098.28;5157210;27;20051;-91
2022/06/18 11:11:05;;;;;;;7.32;4.80;;;;;;;29.56;30.28;99076.91;5158500;27;20058;-92
2022/06/18 11:13:40;;;;;;;7.15;5.00;;;;;;;29.64;30.32;99094.31;5154918;27;20431;-93
2022/06/18 11:16:17;;;;;;;5.75;5.13;;;;;;;29.42;31.34;99089.28;5155244;27;20035;-93
2022/06/18 11:18:50;;;;;;;5.93;5.00;;;;;;;29.63;30.46;99103.56;5151106;27;20051;-92
2022/06/18 11:21:29;;;;;;;6.50;4.95;;;;;;;29.89;30.72;99091.84;5142159;27;20042;-93
2022/06/18 11:24:00;;;;;;;7.05;5.22;;;;;;;29.98;29.93;99062.63;5145516;27;20098;-93
2022/06/18 11:26:34;;;;;;;5.53;4.75;;;;;;;29.62;30.28;99082.63;5143246;27;20074;-92
2022/06/18 11:29:09;;;;;;;6.78;4.95;;;;;;;28.93;31.09;99062.16;5143952;27;20059;-93
2022/06/18 11:31:45;;;;;;;5.70;4.70;;;;;;;29.66;29.08;99096.91;5139651;27;20446;-91
2022/06/18 11:34:21;;;;;;;6.40;4.88;;;;;;;29.74;30.50;99071.50;5147508;27;20444;-91
2022/06/18 11:37:02;;;;;;;5.55;5.05;;;;;;;29.73;29.74;99067.03;5141469;27;20100;-93
2022/06/18 11:39:34;;;;;;;6.50;4.57;;;;;;;29.77;29.79;99083.00;5132781;27;20079;-94
2022/06/18 11:42:08;;;;;;;6.20;4.90;;;;;;;29.82;31.09;99066.06;5143103;27;20061;-93
2022/06/18 11:44:43;;;;;;;5.72;4.82;;;;;;;29.77;29.73;99068.44;5140683;27;20053;-92
2022/06/18 11:47:16;;;;;;;5.75;4.90;;;;;;;29.81;29.78;99059.72;5137342;27;20031;-91
2022/06/18 11:49:49;;;;;;;8.73;4.70;;;;;;;29.82;30.63;99044.13;5140412;27;20056;-92
2022/06/18 11:52:23;;;;;;;7.13;4.75;;;;;;;30.14;29.51;99042.69;5139125;27;20117;-90
2022/06/18 11:55:15;;;;;;;6.15;4.90;;;;;;;29.74;29.73;99053.16;5140274;27;20063;-93
2022/06/18 11:57:53;;;;;;;5.55;5.05;;;;;;;29.43;31.55;99037.06;5140289;27;20395;-93
2022/06/18 12:00:30;;;;;;;8.65;5.05;;;;;;;30.01;29.76;99051.31;5143333;27;20125;-93
2022/06/18 12:03:07;;;;;;;5.22;4.63;;;;;;;30.05;31.33;99045.38;5138324;27;20049;-93
2022/06/18 12:05:42;;;;;;;5.68;5.03;;;;;;;30.09;30.04;99026.72;5137804;27;20051;-90
2022/06/18 12:08:33;;;;;;;4.93;4.38;;;;;;;30.07;30.42;99047.97;5129583;27;20050;-93
2022/06/18 12:11:04;;;;;;;6.28;4.90;;;;;;;30.01;30.18;99038.47;5128613;27;20573;-91
2022/06/18 12:13:46;;;;;;;6.15;4.72;;;;;;;30.13;30.54;99021.78;5143653;27;20043;-93
2022/06/18 12:16:35;;;;;;;7.00;5.00;;;;;;;29.59;30.33;99030.88;5142792;27;20076;-94
2022/06/18 12:19:52;;;;;;;;;;;;;;;;;;;;;
2022/06/18 12:22:39;;;;;;;7.20;4.95;;;;;;;30.32;30.47;99032.59;5136723;27;20051;-91
2022/06/18 12:25:35;;;;;;;6.18;4.93;;;;;;;30.17;29.91;99017.69;5136588;27;20039;-92
2022/06/18 12:28:23;;;;;;;5.82;4.70;;;;;;;30.08;30.34;99014.91;5137203;27;20031;-91